Carlton, Washington
Current Conditions -  °F | °C
As of 7:53 PM on Friday 24 Oct 2014 (Local Time) from KOMK Reporting Station
Scattered Clouds Scattered Clouds  
Wind Chill: 46°   Ceiling: Unl
Heat Index: 46°   Visibility: 10mi
Dew Point: 39°   Wind: 3mph
Humidity: 76%   Direction: 310°NW
Pressure: 30.02"   Gusts: NA
Location:  48.25°N, 120.12°W
Report Text: KOMK 250253Z AUTO 31003KT 10SM SCT120 08/04 A3002 RMK AO2 SLP172 T00780039 55010
Loading
Personal Weather Stations






























Interactive Weather Map
Tropical Storm Tracking
New forecast layout! Learn more

10-Day Weather Forecast

Advertisements
Track Severe Weather on mobile